sensor_id;sensor_type;location;lat;lon;timestamp;P1;durP1;ratioP1;P2;durP2;ratioP2
297;SDS011;133;49.626;9.680;2024-03-08T00:01:35;25.97;;;16.03;;
297;SDS011;133;49.626;9.680;2024-03-08T00:04:00;26.47;;;16.80;;
297;SDS011;133;49.626;9.680;2024-03-08T00:06:26;22.10;;;15.87;;
297;SDS011;133;49.626;9.680;2024-03-08T00:08:52;28.00;;;16.83;;
297;SDS011;133;49.626;9.680;2024-03-08T00:11:17;25.30;;;16.30;;
297;SDS011;133;49.626;9.680;2024-03-08T00:13:43;25.63;;;15.80;;
297;SDS011;133;49.626;9.680;2024-03-08T00:16:10;26.20;;;16.87;;
297;SDS011;133;49.626;9.680;2024-03-08T00:18:35;23.57;;;15.30;;
297;SDS011;133;49.626;9.680;2024-03-08T00:21:01;27.23;;;16.53;;
297;SDS011;133;49.626;9.680;2024-03-08T00:23:27;26.70;;;17.10;;
297;SDS011;133;49.626;9.680;2024-03-08T00:25:53;25.37;;;16.30;;
297;SDS011;133;49.626;9.680;2024-03-08T00:28:19;26.50;;;16.80;;
297;SDS011;133;49.626;9.680;2024-03-08T00:30:45;23.93;;;15.50;;
297;SDS011;133;49.626;9.680;2024-03-08T00:33:11;27.90;;;17.17;;
297;SDS011;133;49.626;9.680;2024-03-08T00:35:37;26.50;;;17.20;;
297;SDS011;133;49.626;9.680;2024-03-08T00:38:03;27.73;;;16.83;;
297;SDS011;133;49.626;9.680;2024-03-08T00:40:29;25.27;;;17.33;;
297;SDS011;133;49.626;9.680;2024-03-08T00:42:54;25.23;;;16.07;;
297;SDS011;133;49.626;9.680;2024-03-08T00:45:20;27.67;;;17.53;;
297;SDS011;133;49.626;9.680;2024-03-08T00:47:47;28.73;;;17.50;;
297;SDS011;133;49.626;9.680;2024-03-08T00:50:12;26.97;;;16.90;;
297;SDS011;133;49.626;9.680;2024-03-08T00:52:38;26.03;;;15.83;;
297;SDS011;133;49.626;9.680;2024-03-08T00:55:04;24.50;;;16.60;;
297;SDS011;133;49.626;9.680;2024-03-08T00:57:29;25.83;;;16.50;;
297;SDS011;133;49.626;9.680;2024-03-08T00:59:55;28.63;;;16.43;;
297;SDS011;133;49.626;9.680;2024-03-08T01:02:21;30.00;;;16.90;;
297;SDS011;133;49.626;9.680;2024-03-08T01:04:48;28.67;;;16.60;;
297;SDS011;133;49.626;9.680;2024-03-08T01:07:13;28.83;;;17.40;;
297;SDS011;133;49.626;9.680;2024-03-08T01:09:39;29.70;;;17.27;;
297;SDS011;133;49.626;9.680;2024-03-08T01:12:05;30.17;;;17.40;;
297;SDS011;133;49.626;9.680;2024-03-08T01:14:32;30.60;;;17.73;;
297;SDS011;133;49.626;9.680;2024-03-08T01:16:58;28.33;;;16.90;;
297;SDS011;133;49.626;9.680;2024-03-08T01:19:24;27.30;;;15.63;;
297;SDS011;133;49.626;9.680;2024-03-08T01:21:49;32.40;;;17.03;;
297;SDS011;133;49.626;9.680;2024-03-08T01:24:16;30.27;;;18.63;;
297;SDS011;133;49.626;9.680;2024-03-08T01:26:41;30.20;;;17.83;;
297;SDS011;133;49.626;9.680;2024-03-08T01:29:07;25.47;;;16.23;;
297;SDS011;133;49.626;9.680;2024-03-08T01:31:33;27.47;;;17.30;;
297;SDS011;133;49.626;9.680;2024-03-08T01:33:58;27.10;;;16.10;;
297;SDS011;133;49.626;9.680;2024-03-08T01:36:24;26.80;;;17.07;;
297;SDS011;133;49.626;9.680;2024-03-08T01:38:50;27.73;;;17.87;;
297;SDS011;133;49.626;9.680;2024-03-08T01:41:16;25.70;;;15.80;;
297;SDS011;133;49.626;9.680;2024-03-08T01:43:43;31.80;;;17.63;;
297;SDS011;133;49.626;9.680;2024-03-08T01:46:10;32.07;;;17.47;;
297;SDS011;133;49.626;9.680;2024-03-08T01:48:37;30.50;;;18.73;;
297;SDS011;133;49.626;9.680;2024-03-08T01:51:06;28.17;;;17.00;;
297;SDS011;133;49.626;9.680;2024-03-08T01:53:32;28.70;;;16.77;;
297;SDS011;133;49.626;9.680;2024-03-08T01:55:57;26.03;;;17.10;;
297;SDS011;133;49.626;9.680;2024-03-08T01:58:24;32.93;;;18.37;;
297;SDS011;133;49.626;9.680;2024-03-08T02:00:54;28.23;;;17.00;;
297;SDS011;133;49.626;9.680;2024-03-08T02:03:21;31.47;;;17.30;;
297;SDS011;133;49.626;9.680;2024-03-08T02:05:47;30.57;;;17.93;;
297;SDS011;133;49.626;9.680;2024-03-08T02:08:14;32.20;;;17.60;;
297;SDS011;133;49.626;9.680;2024-03-08T02:10:40;24.63;;;16.10;;
297;SDS011;133;49.626;9.680;2024-03-08T02:13:07;30.07;;;17.43;;
297;SDS011;133;49.626;9.680;2024-03-08T02:18:21;28.83;;;17.90;;
297;SDS011;133;49.626;9.680;2024-03-08T02:20:55;33.93;;;18.07;;
297;SDS011;133;49.626;9.680;2024-03-08T02:23:21;29.43;;;18.07;;
297;SDS011;133;49.626;9.680;2024-03-08T02:25:49;26.90;;;17.00;;
297;SDS011;133;49.626;9.680;2024-03-08T02:28:15;35.23;;;19.43;;
297;SDS011;133;49.626;9.680;2024-03-08T02:30:43;29.73;;;16.40;;
297;SDS011;133;49.626;9.680;2024-03-08T02:33:09;31.77;;;18.27;;
297;SDS011;133;49.626;9.680;2024-03-08T02:35:35;30.47;;;18.53;;
297;SDS011;133;49.626;9.680;2024-03-08T02:38:01;28.73;;;17.67;;
297;SDS011;133;49.626;9.680;2024-03-08T02:40:29;31.33;;;18.37;;
297;SDS011;133;49.626;9.680;2024-03-08T02:42:54;28.67;;;17.17;;
297;SDS011;133;49.626;9.680;2024-03-08T02:45:20;30.33;;;17.47;;
297;SDS011;133;49.626;9.680;2024-03-08T02:47:46;29.63;;;17.60;;
297;SDS011;133;49.626;9.680;2024-03-08T02:50:11;29.67;;;17.60;;
297;SDS011;133;49.626;9.680;2024-03-08T02:52:41;33.50;;;19.83;;
297;SDS011;133;49.626;9.680;2024-03-08T02:55:07;29.30;;;18.20;;
297;SDS011;133;49.626;9.680;2024-03-08T02:57:35;27.87;;;17.00;;
297;SDS011;133;49.626;9.680;2024-03-08T03:00:01;34.63;;;18.57;;
297;SDS011;133;49.626;9.680;2024-03-08T03:02:28;36.70;;;18.50;;
297;SDS011;133;49.626;9.680;2024-03-08T03:04:54;33.20;;;18.97;;
297;SDS011;133;49.626;9.680;2024-03-08T03:07:21;33.37;;;19.23;;
297;SDS011;133;49.626;9.680;2024-03-08T03:09:46;32.30;;;19.23;;
297;SDS011;133;49.626;9.680;2024-03-08T03:12:12;28.60;;;17.90;;
297;SDS011;133;49.626;9.680;2024-03-08T03:14:39;29.83;;;18.33;;
297;SDS011;133;49.626;9.680;2024-03-08T03:17:04;31.77;;;18.47;;
297;SDS011;133;49.626;9.680;2024-03-08T03:19:30;33.13;;;18.17;;
297;SDS011;133;49.626;9.680;2024-03-08T03:21:56;34.47;;;18.33;;
297;SDS011;133;49.626;9.680;2024-03-08T03:24:22;32.70;;;18.40;;
297;SDS011;133;49.626;9.680;2024-03-08T03:26:48;30.20;;;17.97;;
297;SDS011;133;49.626;9.680;2024-03-08T03:29:14;34.87;;;19.07;;
297;SDS011;133;49.626;9.680;2024-03-08T03:31:42;32.27;;;19.33;;
297;SDS011;133;49.626;9.680;2024-03-08T03:34:11;30.50;;;18.00;;
297;SDS011;133;49.626;9.680;2024-03-08T03:36:37;34.07;;;19.53;;
297;SDS011;133;49.626;9.680;2024-03-08T03:39:07;37.83;;;19.47;;
297;SDS011;133;49.626;9.680;2024-03-08T03:41:40;32.73;;;18.23;;
297;SDS011;133;49.626;9.680;2024-03-08T03:44:07;30.60;;;17.87;;
297;SDS011;133;49.626;9.680;2024-03-08T03:46:33;36.60;;;19.37;;
297;SDS011;133;49.626;9.680;2024-03-08T03:48:58;31.00;;;19.00;;
297;SDS011;133;49.626;9.680;2024-03-08T03:51:24;32.93;;;18.00;;
297;SDS011;133;49.626;9.680;2024-03-08T03:53:50;30.90;;;18.87;;
297;SDS011;133;49.626;9.680;2024-03-08T03:56:16;33.10;;;18.00;;
297;SDS011;133;49.626;9.680;2024-03-08T03:58:41;29.77;;;16.80;;
297;SDS011;133;49.626;9.680;2024-03-08T04:01:07;30.83;;;17.20;;
297;SDS011;133;49.626;9.680;2024-03-08T04:03:34;27.87;;;17.23;;
297;SDS011;133;49.626;9.680;2024-03-08T04:06:00;33.07;;;18.03;;
297;SDS011;133;49.626;9.680;2024-03-08T04:08:27;37.53;;;19.73;;
297;SDS011;133;49.626;9.680;2024-03-08T04:10:52;37.13;;;19.30;;
297;SDS011;133;49.626;9.680;2024-03-08T04:13:18;34.03;;;19.23;;
297;SDS011;133;49.626;9.680;2024-03-08T04:15:45;30.67;;;17.37;;
297;SDS011;133;49.626;9.680;2024-03-08T04:18:13;34.27;;;18.13;;
297;SDS011;133;49.626;9.680;2024-03-08T04:20:39;30.00;;;17.83;;
297;SDS011;133;49.626;9.680;2024-03-08T04:23:05;32.50;;;19.20;;
297;SDS011;133;49.626;9.680;2024-03-08T04:25:31;34.13;;;19.40;;
297;SDS011;133;49.626;9.680;2024-03-08T04:27:57;39.60;;;19.80;;
297;SDS011;133;49.626;9.680;2024-03-08T04:30:22;28.40;;;17.67;;
297;SDS011;133;49.626;9.680;2024-03-08T04:32:49;32.93;;;18.93;;
297;SDS011;133;49.626;9.680;2024-03-08T04:35:15;36.60;;;20.23;;
297;SDS011;133;49.626;9.680;2024-03-08T04:37:41;40.80;;;24.07;;
297;SDS011;133;49.626;9.680;2024-03-08T04:40:07;41.63;;;25.07;;
297;SDS011;133;49.626;9.680;2024-03-08T04:42:33;33.13;;;21.23;;
297;SDS011;133;49.626;9.680;2024-03-08T04:45:02;36.83;;;20.50;;
297;SDS011;133;49.626;9.680;2024-03-08T04:47:29;30.93;;;19.03;;
297;SDS011;133;49.626;9.680;2024-03-08T04:49:54;30.80;;;18.63;;
297;SDS011;133;49.626;9.680;2024-03-08T04:52:21;32.10;;;18.70;;
297;SDS011;133;49.626;9.680;2024-03-08T04:54:47;31.30;;;18.50;;
297;SDS011;133;49.626;9.680;2024-03-08T04:57:13;33.70;;;18.90;;
297;SDS011;133;49.626;9.680;2024-03-08T04:59:38;34.43;;;18.60;;
297;SDS011;133;49.626;9.680;2024-03-08T05:02:04;30.37;;;19.07;;
297;SDS011;133;49.626;9.680;2024-03-08T05:04:32;36.87;;;19.80;;
297;SDS011;133;49.626;9.680;2024-03-08T05:06:58;30.87;;;17.37;;
297;SDS011;133;49.626;9.680;2024-03-08T05:09:26;33.57;;;18.60;;
297;SDS011;133;49.626;9.680;2024-03-08T05:11:56;33.00;;;18.00;;
297;SDS011;133;49.626;9.680;2024-03-08T05:14:24;35.17;;;20.37;;
297;SDS011;133;49.626;9.680;2024-03-08T05:16:50;38.27;;;20.70;;
297;SDS011;133;49.626;9.680;2024-03-08T05:19:19;31.47;;;18.80;;
297;SDS011;133;49.626;9.680;2024-03-08T05:21:46;30.57;;;19.23;;
297;SDS011;133;49.626;9.680;2024-03-08T05:24:13;30.47;;;18.57;;
297;SDS011;133;49.626;9.680;2024-03-08T05:26:39;33.40;;;18.97;;
297;SDS011;133;49.626;9.680;2024-03-08T05:29:05;35.07;;;19.03;;
297;SDS011;133;49.626;9.680;2024-03-08T05:31:32;30.33;;;18.77;;
297;SDS011;133;49.626;9.680;2024-03-08T05:34:11;32.17;;;18.40;;
297;SDS011;133;49.626;9.680;2024-03-08T05:36:39;34.50;;;19.67;;
297;SDS011;133;49.626;9.680;2024-03-08T05:39:05;30.87;;;17.17;;
297;SDS011;133;49.626;9.680;2024-03-08T05:41:31;31.13;;;18.43;;
297;SDS011;133;49.626;9.680;2024-03-08T05:43:57;35.10;;;18.80;;
297;SDS011;133;49.626;9.680;2024-03-08T05:46:23;31.93;;;19.10;;
297;SDS011;133;49.626;9.680;2024-03-08T05:48:48;34.27;;;19.63;;
297;SDS011;133;49.626;9.680;2024-03-08T05:51:14;34.20;;;18.87;;
297;SDS011;133;49.626;9.680;2024-03-08T05:53:40;30.87;;;17.67;;
297;SDS011;133;49.626;9.680;2024-03-08T05:56:05;31.50;;;17.73;;
297;SDS011;133;49.626;9.680;2024-03-08T05:58:31;33.27;;;18.60;;
297;SDS011;133;49.626;9.680;2024-03-08T06:00:57;39.80;;;19.23;;
297;SDS011;133;49.626;9.680;2024-03-08T06:03:22;34.37;;;19.90;;
297;SDS011;133;49.626;9.680;2024-03-08T06:05:48;35.63;;;19.70;;
297;SDS011;133;49.626;9.680;2024-03-08T06:08:14;31.00;;;17.07;;
297;SDS011;133;49.626;9.680;2024-03-08T06:10:40;36.60;;;18.47;;
297;SDS011;133;49.626;9.680;2024-03-08T06:13:06;32.10;;;19.20;;
297;SDS011;133;49.626;9.680;2024-03-08T06:15:32;34.77;;;18.57;;
297;SDS011;133;49.626;9.680;2024-03-08T06:17:57;35.70;;;18.80;;
297;SDS011;133;49.626;9.680;2024-03-08T06:20:23;34.57;;;20.37;;
297;SDS011;133;49.626;9.680;2024-03-08T06:22:51;32.33;;;19.27;;
297;SDS011;133;49.626;9.680;2024-03-08T06:25:17;34.30;;;20.40;;
297;SDS011;133;49.626;9.680;2024-03-08T06:27:43;35.67;;;20.30;;
297;SDS011;133;49.626;9.680;2024-03-08T06:30:09;35.33;;;21.43;;
297;SDS011;133;49.626;9.680;2024-03-08T06:32:38;34.20;;;21.10;;
297;SDS011;133;49.626;9.680;2024-03-08T06:35:04;34.37;;;18.90;;
297;SDS011;133;49.626;9.680;2024-03-08T06:37:35;30.03;;;18.57;;
297;SDS011;133;49.626;9.680;2024-03-08T06:40:01;32.37;;;18.87;;
297;SDS011;133;49.626;9.680;2024-03-08T06:42:33;32.17;;;18.43;;
297;SDS011;133;49.626;9.680;2024-03-08T06:45:00;33.07;;;18.70;;
297;SDS011;133;49.626;9.680;2024-03-08T06:47:30;29.97;;;19.17;;
297;SDS011;133;49.626;9.680;2024-03-08T06:49:56;33.60;;;19.67;;
297;SDS011;133;49.626;9.680;2024-03-08T06:52:22;32.03;;;18.97;;
297;SDS011;133;49.626;9.680;2024-03-08T06:54:48;37.20;;;20.10;;
297;SDS011;133;49.626;9.680;2024-03-08T06:57:14;32.20;;;18.87;;
297;SDS011;133;49.626;9.680;2024-03-08T06:59:41;32.47;;;19.27;;
297;SDS011;133;49.626;9.680;2024-03-08T07:02:07;38.33;;;19.83;;
297;SDS011;133;49.626;9.680;2024-03-08T07:04:36;31.70;;;18.80;;
297;SDS011;133;49.626;9.680;2024-03-08T07:07:06;32.67;;;19.53;;
297;SDS011;133;49.626;9.680;2024-03-08T07:09:37;32.53;;;20.20;;
297;SDS011;133;49.626;9.680;2024-03-08T07:12:03;33.23;;;20.33;;
297;SDS011;133;49.626;9.680;2024-03-08T07:14:29;31.73;;;18.63;;
297;SDS011;133;49.626;9.680;2024-03-08T07:16:56;31.60;;;18.67;;
297;SDS011;133;49.626;9.680;2024-03-08T07:19:21;33.80;;;19.30;;
297;SDS011;133;49.626;9.680;2024-03-08T07:21:47;34.87;;;19.90;;
297;SDS011;133;49.626;9.680;2024-03-08T07:24:13;32.70;;;19.90;;
297;SDS011;133;49.626;9.680;2024-03-08T07:26:39;32.80;;;20.47;;
297;SDS011;133;49.626;9.680;2024-03-08T07:29:05;33.17;;;19.60;;
297;SDS011;133;49.626;9.680;2024-03-08T07:31:30;32.00;;;19.93;;
297;SDS011;133;49.626;9.680;2024-03-08T07:34:19;29.03;;;18.27;;
297;SDS011;133;49.626;9.680;2024-03-08T07:36:46;31.73;;;18.40;;
297;SDS011;133;49.626;9.680;2024-03-08T07:39:11;33.53;;;20.37;;
297;SDS011;133;49.626;9.680;2024-03-08T07:41:37;32.53;;;19.03;;
297;SDS011;133;49.626;9.680;2024-03-08T07:44:05;31.10;;;19.37;;
297;SDS011;133;49.626;9.680;2024-03-08T07:46:31;33.93;;;19.47;;
297;SDS011;133;49.626;9.680;2024-03-08T07:48:59;37.53;;;20.97;;
297;SDS011;133;49.626;9.680;2024-03-08T07:51:25;34.47;;;20.47;;
297;SDS011;133;49.626;9.680;2024-03-08T07:53:50;34.20;;;19.80;;
297;SDS011;133;49.626;9.680;2024-03-08T07:56:16;32.33;;;20.03;;
297;SDS011;133;49.626;9.680;2024-03-08T07:58:43;36.93;;;20.57;;
297;SDS011;133;49.626;9.680;2024-03-08T08:01:18;32.17;;;20.70;;
297;SDS011;133;49.626;9.680;2024-03-08T08:03:45;33.13;;;19.90;;
297;SDS011;133;49.626;9.680;2024-03-08T08:06:11;34.07;;;21.20;;
297;SDS011;133;49.626;9.680;2024-03-08T08:08:43;42.50;;;22.97;;
297;SDS011;133;49.626;9.680;2024-03-08T08:11:10;35.67;;;21.80;;
297;SDS011;133;49.626;9.680;2024-03-08T08:13:40;33.67;;;19.70;;
297;SDS011;133;49.626;9.680;2024-03-08T08:16:08;33.17;;;19.93;;
297;SDS011;133;49.626;9.680;2024-03-08T08:18:34;40.67;;;20.93;;
297;SDS011;133;49.626;9.680;2024-03-08T08:21:00;32.50;;;20.40;;
297;SDS011;133;49.626;9.680;2024-03-08T08:23:26;33.63;;;21.17;;
297;SDS011;133;49.626;9.680;2024-03-08T08:25:52;39.67;;;21.73;;
297;SDS011;133;49.626;9.680;2024-03-08T08:28:18;33.97;;;20.87;;
297;SDS011;133;49.626;9.680;2024-03-08T08:30:44;38.77;;;22.37;;
297;SDS011;133;49.626;9.680;2024-03-08T08:33:10;36.93;;;23.10;;
297;SDS011;133;49.626;9.680;2024-03-08T08:35:38;40.20;;;21.10;;
297;SDS011;133;49.626;9.680;2024-03-08T08:38:04;33.57;;;20.57;;
297;SDS011;133;49.626;9.680;2024-03-08T08:40:30;37.97;;;20.90;;
297;SDS011;133;49.626;9.680;2024-03-08T08:42:57;41.17;;;22.63;;
297;SDS011;133;49.626;9.680;2024-03-08T08:45:23;34.67;;;21.70;;
297;SDS011;133;49.626;9.680;2024-03-08T08:47:49;32.97;;;21.83;;
297;SDS011;133;49.626;9.680;2024-03-08T08:50:15;37.70;;;22.53;;
297;SDS011;133;49.626;9.680;2024-03-08T08:52:41;39.93;;;22.10;;
297;SDS011;133;49.626;9.680;2024-03-08T08:55:10;35.40;;;21.00;;
297;SDS011;133;49.626;9.680;2024-03-08T08:57:40;36.40;;;21.53;;
297;SDS011;133;49.626;9.680;2024-03-08T09:00:06;35.00;;;21.53;;
297;SDS011;133;49.626;9.680;2024-03-08T09:02:34;31.87;;;20.50;;
297;SDS011;133;49.626;9.680;2024-03-08T09:04:59;34.10;;;20.30;;
297;SDS011;133;49.626;9.680;2024-03-08T09:07:26;32.20;;;20.77;;
297;SDS011;133;49.626;9.680;2024-03-08T09:09:53;32.07;;;20.97;;
297;SDS011;133;49.626;9.680;2024-03-08T09:12:22;33.70;;;19.37;;
297;SDS011;133;49.626;9.680;2024-03-08T09:14:48;34.87;;;21.33;;
297;SDS011;133;49.626;9.680;2024-03-08T09:17:14;32.43;;;20.43;;
297;SDS011;133;49.626;9.680;2024-03-08T09:19:42;30.67;;;19.50;;
297;SDS011;133;49.626;9.680;2024-03-08T09:22:08;33.57;;;20.60;;
297;SDS011;133;49.626;9.680;2024-03-08T09:24:36;35.20;;;20.47;;
297;SDS011;133;49.626;9.680;2024-03-08T09:27:01;34.00;;;20.17;;
297;SDS011;133;49.626;9.680;2024-03-08T09:29:28;29.13;;;20.00;;
297;SDS011;133;49.626;9.680;2024-03-08T09:31:54;33.17;;;20.40;;
297;SDS011;133;49.626;9.680;2024-03-08T09:34:19;32.23;;;18.73;;
297;SDS011;133;49.626;9.680;2024-03-08T09:36:45;32.40;;;19.93;;
297;SDS011;133;49.626;9.680;2024-03-08T09:39:11;30.93;;;20.00;;
297;SDS011;133;49.626;9.680;2024-03-08T09:41:41;31.80;;;19.30;;
297;SDS011;133;49.626;9.680;2024-03-08T09:44:13;31.87;;;19.30;;
297;SDS011;133;49.626;9.680;2024-03-08T09:46:39;33.70;;;21.03;;
297;SDS011;133;49.626;9.680;2024-03-08T09:49:05;32.83;;;19.93;;
297;SDS011;133;49.626;9.680;2024-03-08T09:51:33;32.63;;;19.70;;
297;SDS011;133;49.626;9.680;2024-03-08T09:54:03;34.17;;;20.63;;
297;SDS011;133;49.626;9.680;2024-03-08T09:56:31;31.80;;;20.90;;
297;SDS011;133;49.626;9.680;2024-03-08T09:59:00;32.80;;;20.37;;
297;SDS011;133;49.626;9.680;2024-03-08T10:01:44;30.17;;;18.63;;
297;SDS011;133;49.626;9.680;2024-03-08T10:04:11;29.80;;;19.17;;
297;SDS011;133;49.626;9.680;2024-03-08T10:06:39;31.60;;;19.90;;
297;SDS011;133;49.626;9.680;2024-03-08T10:09:05;29.50;;;20.27;;
297;SDS011;133;49.626;9.680;2024-03-08T10:11:33;26.67;;;17.37;;
297;SDS011;133;49.626;9.680;2024-03-08T10:14:00;28.30;;;18.90;;
297;SDS011;133;49.626;9.680;2024-03-08T10:16:27;28.70;;;18.30;;
297;SDS011;133;49.626;9.680;2024-03-08T10:18:53;28.57;;;19.50;;
297;SDS011;133;49.626;9.680;2024-03-08T10:21:21;32.53;;;19.53;;
297;SDS011;133;49.626;9.680;2024-03-08T10:23:47;29.63;;;18.47;;
297;SDS011;133;49.626;9.680;2024-03-08T10:26:16;26.50;;;17.60;;
297;SDS011;133;49.626;9.680;2024-03-08T10:28:44;29.00;;;19.37;;
297;SDS011;133;49.626;9.680;2024-03-08T10:31:12;27.13;;;19.67;;
297;SDS011;133;49.626;9.680;2024-03-08T10:33:40;29.73;;;17.87;;
297;SDS011;133;49.626;9.680;2024-03-08T10:36:09;30.33;;;19.03;;
297;SDS011;133;49.626;9.680;2024-03-08T10:38:37;29.97;;;18.50;;
297;SDS011;133;49.626;9.680;2024-03-08T10:41:05;31.90;;;19.00;;
297;SDS011;133;49.626;9.680;2024-03-08T10:43:33;28.13;;;18.63;;
297;SDS011;133;49.626;9.680;2024-03-08T10:47:13;27.17;;;19.27;;
297;SDS011;133;49.626;9.680;2024-03-08T10:49:12;29.93;;;19.67;;
297;SDS011;133;49.626;9.680;2024-03-08T10:51:42;28.80;;;17.60;;
297;SDS011;133;49.626;9.680;2024-03-08T10:54:09;28.40;;;18.00;;
297;SDS011;133;49.626;9.680;2024-03-08T10:56:36;30.63;;;18.50;;
297;SDS011;133;49.626;9.680;2024-03-08T10:59:04;26.80;;;17.53;;
297;SDS011;133;49.626;9.680;2024-03-08T11:01:33;28.17;;;17.57;;
297;SDS011;133;49.626;9.680;2024-03-08T11:03:59;29.67;;;18.83;;
297;SDS011;133;49.626;9.680;2024-03-08T11:06:30;26.60;;;17.00;;
297;SDS011;133;49.626;9.680;2024-03-08T11:14:54;26.23;;;18.50;;
297;SDS011;133;49.626;9.680;2024-03-08T11:17:44;27.30;;;18.40;;
297;SDS011;133;49.626;9.680;2024-03-08T11:20:17;28.73;;;18.67;;
297;SDS011;133;49.626;9.680;2024-03-08T11:23:06;25.07;;;17.43;;
297;SDS011;133;49.626;9.680;2024-03-08T11:25:40;26.10;;;17.00;;
297;SDS011;133;49.626;9.680;2024-03-08T11:28:17;27.20;;;16.80;;
297;SDS011;133;49.626;9.680;2024-03-08T11:33:24;23.30;;;17.10;;
297;SDS011;133;49.626;9.680;2024-03-08T11:35:52;23.97;;;15.00;;
297;SDS011;133;49.626;9.680;2024-03-08T11:38:17;24.13;;;17.30;;
297;SDS011;133;49.626;9.680;2024-03-08T11:40:45;22.73;;;16.43;;
297;SDS011;133;49.626;9.680;2024-03-08T11:43:11;24.30;;;16.97;;
297;SDS011;133;49.626;9.680;2024-03-08T11:45:37;23.60;;;17.47;;
297;SDS011;133;49.626;9.680;2024-03-08T11:48:03;26.50;;;18.00;;
297;SDS011;133;49.626;9.680;2024-03-08T11:50:30;21.20;;;15.33;;
297;SDS011;133;49.626;9.680;2024-03-08T11:53:03;26.63;;;17.00;;
297;SDS011;133;49.626;9.680;2024-03-08T11:55:30;20.97;;;16.33;;
297;SDS011;133;49.626;9.680;2024-03-08T11:58:01;23.80;;;17.70;;
297;SDS011;133;49.626;9.680;2024-03-08T12:00:28;22.30;;;16.83;;
297;SDS011;133;49.626;9.680;2024-03-08T12:03:03;23.37;;;16.10;;
297;SDS011;133;49.626;9.680;2024-03-08T12:05:33;21.80;;;15.17;;
297;SDS011;133;49.626;9.680;2024-03-08T12:07:59;20.67;;;15.67;;
297;SDS011;133;49.626;9.680;2024-03-08T12:10:25;21.90;;;15.23;;
297;SDS011;133;49.626;9.680;2024-03-08T12:12:54;21.00;;;14.50;;
297;SDS011;133;49.626;9.680;2024-03-08T12:15:24;20.30;;;15.73;;
297;SDS011;133;49.626;9.680;2024-03-08T12:17:51;22.90;;;15.37;;
297;SDS011;133;49.626;9.680;2024-03-08T12:20:25;19.50;;;15.13;;
297;SDS011;133;49.626;9.680;2024-03-08T12:22:54;20.90;;;16.37;;
297;SDS011;133;49.626;9.680;2024-03-08T12:25:41;24.20;;;16.13;;
297;SDS011;133;49.626;9.680;2024-03-08T12:28:10;25.20;;;17.13;;
297;SDS011;133;49.626;9.680;2024-03-08T12:30:44;21.10;;;15.63;;
297;SDS011;133;49.626;9.680;2024-03-08T12:33:15;27.53;;;15.40;;
297;SDS011;133;49.626;9.680;2024-03-08T12:35:49;23.27;;;16.47;;
297;SDS011;133;49.626;9.680;2024-03-08T12:38:18;19.40;;;15.47;;
297;SDS011;133;49.626;9.680;2024-03-08T12:40:49;18.70;;;14.20;;
297;SDS011;133;49.626;9.680;2024-03-08T12:43:15;22.50;;;16.30;;
297;SDS011;133;49.626;9.680;2024-03-08T12:45:41;18.30;;;13.40;;
297;SDS011;133;49.626;9.680;2024-03-08T12:48:12;20.33;;;15.47;;
297;SDS011;133;49.626;9.680;2024-03-08T12:50:42;20.47;;;14.90;;
297;SDS011;133;49.626;9.680;2024-03-08T12:53:10;20.13;;;14.50;;
297;SDS011;133;49.626;9.680;2024-03-08T12:55:36;20.80;;;14.23;;
297;SDS011;133;49.626;9.680;2024-03-08T12:58:01;18.70;;;13.60;;
297;SDS011;133;49.626;9.680;2024-03-08T13:00:28;21.60;;;14.77;;
297;SDS011;133;49.626;9.680;2024-03-08T13:02:54;18.53;;;14.10;;
297;SDS011;133;49.626;9.680;2024-03-08T13:05:20;19.57;;;15.17;;
297;SDS011;133;49.626;9.680;2024-03-08T13:07:46;17.20;;;14.07;;
297;SDS011;133;49.626;9.680;2024-03-08T13:10:12;19.33;;;14.87;;
297;SDS011;133;49.626;9.680;2024-03-08T13:12:42;17.53;;;13.50;;
297;SDS011;133;49.626;9.680;2024-03-08T13:15:08;18.60;;;13.30;;
297;SDS011;133;49.626;9.680;2024-03-08T13:17:39;21.13;;;14.83;;
297;SDS011;133;49.626;9.680;2024-03-08T13:20:06;16.60;;;12.37;;
297;SDS011;133;49.626;9.680;2024-03-08T13:22:32;17.93;;;12.70;;
297;SDS011;133;49.626;9.680;2024-03-08T13:24:58;19.40;;;13.10;;
297;SDS011;133;49.626;9.680;2024-03-08T13:27:26;17.73;;;13.17;;
297;SDS011;133;49.626;9.680;2024-03-08T13:29:52;17.03;;;12.40;;
297;SDS011;133;49.626;9.680;2024-03-08T13:32:18;18.43;;;13.30;;
297;SDS011;133;49.626;9.680;2024-03-08T13:34:45;15.83;;;12.40;;
297;SDS011;133;49.626;9.680;2024-03-08T13:37:12;15.40;;;12.47;;
297;SDS011;133;49.626;9.680;2024-03-08T13:39:41;21.30;;;13.23;;
297;SDS011;133;49.626;9.680;2024-03-08T13:42:15;17.60;;;13.10;;
297;SDS011;133;49.626;9.680;2024-03-08T13:44:45;15.97;;;12.30;;
297;SDS011;133;49.626;9.680;2024-03-08T13:47:12;18.27;;;13.83;;
297;SDS011;133;49.626;9.680;2024-03-08T13:49:39;20.30;;;13.20;;
297;SDS011;133;49.626;9.680;2024-03-08T13:52:05;14.73;;;11.60;;
297;SDS011;133;49.626;9.680;2024-03-08T13:54:33;16.50;;;13.10;;
297;SDS011;133;49.626;9.680;2024-03-08T13:57:00;17.40;;;13.10;;
297;SDS011;133;49.626;9.680;2024-03-08T13:59:28;15.93;;;12.47;;
297;SDS011;133;49.626;9.680;2024-03-08T14:01:58;17.07;;;12.90;;
297;SDS011;133;49.626;9.680;2024-03-08T14:04:26;15.33;;;11.93;;
297;SDS011;133;49.626;9.680;2024-03-08T14:06:52;16.03;;;12.87;;
297;SDS011;133;49.626;9.680;2024-03-08T14:09:22;17.37;;;13.63;;
297;SDS011;133;49.626;9.680;2024-03-08T14:11:50;16.80;;;13.40;;
297;SDS011;133;49.626;9.680;2024-03-08T14:14:18;18.17;;;12.90;;
297;SDS011;133;49.626;9.680;2024-03-08T14:16:46;15.07;;;11.17;;
297;SDS011;133;49.626;9.680;2024-03-08T14:19:12;15.40;;;10.90;;
297;SDS011;133;49.626;9.680;2024-03-08T14:21:40;18.27;;;12.27;;
297;SDS011;133;49.626;9.680;2024-03-08T14:24:07;14.73;;;11.13;;
297;SDS011;133;49.626;9.680;2024-03-08T14:26:33;14.67;;;11.73;;
297;SDS011;133;49.626;9.680;2024-03-08T14:28:59;14.17;;;10.50;;
297;SDS011;133;49.626;9.680;2024-03-08T14:31:24;13.77;;;10.60;;
297;SDS011;133;49.626;9.680;2024-03-08T14:33:51;13.77;;;10.70;;
297;SDS011;133;49.626;9.680;2024-03-08T14:36:18;15.77;;;12.00;;
297;SDS011;133;49.626;9.680;2024-03-08T14:38:47;14.10;;;11.03;;
297;SDS011;133;49.626;9.680;2024-03-08T14:41:13;14.20;;;10.00;;
297;SDS011;133;49.626;9.680;2024-03-08T14:43:42;15.07;;;11.60;;
297;SDS011;133;49.626;9.680;2024-03-08T14:46:10;13.63;;;10.60;;
297;SDS011;133;49.626;9.680;2024-03-08T14:48:49;14.90;;;10.23;;
297;SDS011;133;49.626;9.680;2024-03-08T14:51:18;14.00;;;9.83;;
297;SDS011;133;49.626;9.680;2024-03-08T14:53:47;13.20;;;9.60;;
297;SDS011;133;49.626;9.680;2024-03-08T14:56:14;12.57;;;9.40;;
297;SDS011;133;49.626;9.680;2024-03-08T14:58:44;12.20;;;9.13;;
297;SDS011;133;49.626;9.680;2024-03-08T15:01:14;12.27;;;8.83;;
297;SDS011;133;49.626;9.680;2024-03-08T15:03:40;11.90;;;9.10;;
297;SDS011;133;49.626;9.680;2024-03-08T15:06:09;14.10;;;10.30;;
297;SDS011;133;49.626;9.680;2024-03-08T15:08:36;14.03;;;9.30;;
297;SDS011;133;49.626;9.680;2024-03-08T15:11:02;13.20;;;9.03;;
297;SDS011;133;49.626;9.680;2024-03-08T15:13:28;10.63;;;9.43;;
297;SDS011;133;49.626;9.680;2024-03-08T15:16:04;11.70;;;8.80;;
297;SDS011;133;49.626;9.680;2024-03-08T15:18:31;12.20;;;8.27;;
297;SDS011;133;49.626;9.680;2024-03-08T15:20:59;13.23;;;9.40;;
297;SDS011;133;49.626;9.680;2024-03-08T15:23:26;9.43;;;8.03;;
297;SDS011;133;49.626;9.680;2024-03-08T15:25:51;12.30;;;8.80;;
297;SDS011;133;49.626;9.680;2024-03-08T15:28:17;12.00;;;8.30;;